Dallas, Texas
Traffic Map
Current Weather Conditions
Dallas, Texas
Broken Clouds
Broken Clouds
22°
Feels Like: 22°
Wind Chill: 22° Ceiling: 30000
Heat Index: 22° Visibility: 10mi
Dew Point: Wind: 13mph
Humidity: 37% Direction: 130° (SE)
Pressure: 30.09in Gusts: 0mph
Raw Report DataKDAL 190153Z 13011KT 10SM BKN300 22/07 A3009 RMK AO2 SLP186 T02220067
Traffic Incident Summary
Active as of:
Severity:
Category:
InformationThere was an issue retrieving the traffic information for this location. Please try a different location or try again shortly.
Advertisements